Time;durP1;ratioP1;P1;durP2;ratioP2;P2;SDS_P1;SDS_P2;PMS_P1;PMS_P2;Temp;Humidity;BMP_temperature;BMP_pressure;BME280_temperature;BME280_humidity;BME280_pressure;Samples;Min_cycle;Max_cycle;Signal;HPM_P1;HPM_P2
2023/04/26 00:00:12;;;;;;;;;11.00;11.00;;;;;8.71;91.67;98807.38;6281525;20;3522244;-53
2023/04/26 00:02:40;;;;;;;;;14.00;12.00;;;;;8.65;92.02;98805.16;6314218;20;2813839;-55
2023/04/26 00:05:09;;;;;;;;;12.00;12.00;;;;;8.70;91.86;98804.84;6280717;20;2807742;-54
2023/04/26 00:07:37;;;;;;;;;13.00;13.00;;;;;8.56;92.55;98803.97;6312583;20;2783641;-51
2023/04/26 00:10:09;;;;;;;;;13.33;11.67;;;;;8.60;92.84;98811.78;6281897;20;3523225;-51
2023/04/26 00:12:37;;;;;;;;;15.00;13.00;;;;;8.54;92.53;98811.22;6313744;20;2811825;-53
2023/04/26 00:15:07;;;;;;;;;12.67;12.67;;;;;8.58;92.40;98803.84;6281996;20;3532909;-49
2023/04/26 00:17:36;;;;;;;;;13.00;13.00;;;;;8.51;92.30;98811.44;6311205;20;3536663;-53
2023/04/26 00:20:08;;;;;;;;;14.00;13.00;;;;;8.49;92.87;98815.16;6311397;20;3538813;-53
2023/04/26 00:22:38;;;;;;;;;14.33;13.00;;;;;8.58;92.19;98809.19;6307835;20;2796210;-54
2023/04/26 00:25:11;;;;;;;;;11.67;11.67;;;;;8.64;91.90;98814.16;6309411;20;3531526;-53
2023/04/26 00:27:40;;;;;;;;;11.00;11.00;;;;;8.68;91.16;98814.78;6309488;20;3517963;-51
2023/04/26 00:30:10;;;;;;;;;15.67;14.33;;;;;8.61;91.49;98813.47;6310523;20;3535694;-53
2023/04/26 00:32:38;;;;;;;;;19.00;15.33;;;;;8.69;91.33;98820.03;6278787;20;3549194;-54
2023/04/26 00:35:07;;;;;;;;;14.00;14.00;;;;;8.57;91.32;98827.06;6310162;20;2817005;-52
2023/04/26 00:37:36;;;;;;;;;18.00;14.67;;;;;8.56;91.68;98830.72;6280495;20;3545217;-51
2023/04/26 00:40:05;;;;;;;;;12.50;12.50;;;;;8.55;91.58;98828.13;6313021;20;2807650;-49
2023/04/26 00:42:33;;;;;;;;;14.00;12.50;;;;;8.66;91.46;98832.75;6282469;20;2810747;-53
2023/04/26 00:45:02;;;;;;;;;19.00;16.00;;;;;8.61;91.32;98826.84;6280488;20;3540921;-53
2023/04/26 00:47:31;;;;;;;;;12.67;12.00;;;;;8.62;91.52;98825.91;6310259;20;3546201;-53
2023/04/26 00:50:00;;;;;;;;;17.50;13.00;;;;;8.67;91.74;98829.13;6315176;20;2810675;-53
2023/04/26 00:52:30;;;;;;;;;14.67;14.67;;;;;8.61;91.56;98824.19;6284245;20;3544027;-52
2023/04/26 00:54:59;;;;;;;;;16.67;14.33;;;;;8.64;91.29;98826.69;6313959;20;3544093;-49
2023/04/26 00:57:28;;;;;;;;;15.00;15.00;;;;;8.63;91.29;98832.97;6314171;20;3547156;-50
2023/04/26 00:59:56;;;;;;;;;15.50;14.00;;;;;8.64;90.91;98832.88;6286837;20;2800277;-48
2023/04/26 01:02:24;;;;;;;;;17.50;16.50;;;;;8.64;91.06;98834.69;6285349;20;2824279;-49
2023/04/26 01:04:52;;;;;;;;;14.00;12.50;;;;;8.54;91.53;98840.66;6285926;20;2802486;-52
2023/04/26 01:07:20;;;;;;;;;14.00;13.00;;;;;8.59;91.46;98836.81;6290303;20;2807562;-50
2023/04/26 01:09:49;;;;;;;;;19.67;17.33;;;;;8.74;90.62;98849.16;6284884;20;3566926;-55
2023/04/26 01:12:19;;;;;;;;;17.00;15.67;;;;;8.70;90.71;98848.50;6282096;20;3549225;-52
2023/04/26 01:14:47;;;;;;;;;17.00;16.00;;;;;8.62;90.72;98847.31;6284683;20;2820097;-48
2023/04/26 01:17:15;;;;;;;;;17.67;17.00;;;;;8.78;90.12;98851.53;6283752;20;3551279;-52
2023/04/26 01:19:49;;;;;;;;;16.67;16.67;;;;;8.69;90.67;98853.94;6279952;20;3557678;-52
2023/04/26 01:22:18;;;;;;;;;17.67;17.33;;;;;8.71;90.56;98844.00;6282667;20;3556522;-53
2023/04/26 01:24:50;;;;;;;;;18.67;17.00;;;;;8.67;90.89;98858.56;6314828;20;3562767;-54
2023/04/26 01:27:18;;;;;;;;;17.00;16.50;;;;;8.53;91.36;98848.78;6282625;20;2819065;-53
2023/04/26 01:29:47;;;;;;;;;16.33;14.00;;;;;8.57;91.33;98851.16;6285466;20;3523385;-51
2023/04/26 01:32:15;;;;;;;;;17.00;17.00;;;;;8.63;91.34;98862.41;6315852;20;2819034;-51
2023/04/26 01:34:43;;;;;;;;;19.50;17.00;;;;;8.53;91.61;98846.97;6286769;20;2818074;-49
2023/04/26 01:37:12;;;;;;;;;18.00;15.00;;;;;8.47;91.89;98859.88;6283710;20;3533680;-50
2023/04/26 01:39:40;;;;;;;;;17.67;17.00;;;;;8.56;91.78;98862.81;6314633;20;3554557;-52
2023/04/26 01:42:09;;;;;;;;;18.00;15.33;;;;;8.51;92.10;98862.25;6278595;20;3549336;-50
2023/04/26 01:44:38;;;;;;;;;19.50;19.50;;;;;8.48;92.30;98867.81;6280200;20;2832684;-50
2023/04/26 01:47:06;;;;;;;;;18.50;16.50;;;;;8.47;92.21;98870.59;6278413;20;2496245;-51
2023/04/26 01:49:35;;;;;;;;;19.00;18.00;;;;;8.46;92.21;98874.22;6281689;20;2829550;-52
2023/04/26 01:52:03;;;;;;;;;17.00;16.33;;;;;8.28;93.01;98865.56;6281109;20;3558651;-50
2023/04/26 01:54:32;;;;;;;;;13.67;12.33;;;;;8.44;92.96;98868.13;6311888;20;2790044;-53
2023/04/26 01:57:01;;;;;;;;;20.00;17.50;;;;;8.29;93.59;98875.28;6308367;20;2498291;-54
2023/04/26 01:59:29;;;;;;;;;21.00;16.50;;;;;8.36;93.73;98879.28;6274128;20;2500262;-53
2023/04/26 02:01:57;;;;;;;;;18.00;18.00;;;;;8.39;93.72;98878.22;6272759;20;2500411;-53
2023/04/26 02:04:26;;;;;;;;;16.50;16.50;;;;;8.41;93.54;98882.56;6281763;20;2487757;-54
2023/04/26 02:06:54;;;;;;;;;21.00;18.00;;;;;8.35;93.67;98877.59;6280799;20;2500429;-51
2023/04/26 02:09:22;;;;;;;;;20.00;20.00;;;;;8.43;93.46;98886.00;6282315;20;2500422;-52
2023/04/26 02:11:50;;;;;;;;;22.00;19.50;;;;;8.32;93.11;98873.28;6283211;20;2850299;-55
2023/04/26 02:14:19;;;;;;;;;26.50;21.50;;;;;8.42;92.84;98889.59;6279202;20;2500431;-52
2023/04/26 02:16:48;;;;;;;;;20.00;19.00;;;;;8.33;93.15;98885.69;6281584;20;2839860;-49
2023/04/26 02:19:16;;;;;;;;;23.50;21.50;;;;;8.33;93.49;98888.38;6285024;20;2845064;-50
2023/04/26 02:22:10;;;;;;;;;22.50;20.50;;;;;8.32;93.38;98888.47;6277984;20;2500337;-52
2023/04/26 02:24:38;;;;;;;;;23.00;17.50;;;;;8.32;92.88;98888.47;6282557;20;2825359;-52
2023/04/26 02:27:06;;;;;;;;;18.00;18.00;;;;;8.29;92.85;98883.31;6280701;20;2500746;-54
2023/04/26 02:29:35;;;;;;;;;19.00;19.00;;;;;8.23;92.86;98886.41;6279677;20;2500259;-54
2023/04/26 02:32:14;;;;;;;;;23.50;21.00;;;;;8.32;92.95;98883.09;6282252;20;2500321;-55
2023/04/26 02:34:44;;;;;;;;;26.00;18.50;;;;;8.12;93.55;98890.63;6281902;20;2852392;-51
2023/04/26 02:37:12;;;;;;;;;23.00;20.00;;;;;8.04;93.87;98889.41;6285600;20;2494120;-51
2023/04/26 02:39:40;;;;;;;;;20.50;20.00;;;;;8.00;94.15;98888.72;6281183;20;2500296;-50
2023/04/26 02:42:11;;;;;;;;;22.00;20.00;;;;;8.12;93.49;98893.28;6283688;20;2835697;-52
2023/04/26 02:44:39;;;;;;;;;24.00;20.00;;;;;8.06;93.39;98892.84;6280042;20;2500248;-54
2023/04/26 02:47:10;;;;;;;;;24.50;22.00;;;;;7.97;93.33;98888.91;6281392;20;2838853;-53
2023/04/26 02:49:38;;;;;;;;;23.50;20.50;;;;;8.15;93.32;98886.88;6283434;20;2833636;-51
2023/04/26 02:52:06;;;;;;;;;23.00;18.00;;;;;8.04;92.87;98887.59;6280458;20;2500416;-52
2023/04/26 02:54:35;;;;;;;;;18.67;17.00;;;;;8.06;93.42;98887.50;6283564;20;3553677;-53
2023/04/26 02:57:03;;;;;;;;;22.00;22.00;;;;;7.93;93.41;98887.41;6277120;20;2500320;-54
2023/04/26 02:59:31;;;;;;;;;18.50;18.50;;;;;7.98;93.31;98895.13;6280998;20;2496107;-54
2023/04/26 03:02:00;;;;;;;;;16.67;16.67;;;;;8.05;92.76;98896.44;6283290;20;3548137;-52
2023/04/26 03:04:29;;;;;;;;;21.50;19.00;;;;;8.05;92.31;98888.44;6276215;20;2500737;-51
2023/04/26 03:06:56;;;;;;;;;24.00;20.00;;;;;8.06;91.72;98899.03;6278949;20;2835812;-51
2023/04/26 03:09:24;;;;;;;;;20.00;19.00;;;;;8.06;91.52;98898.19;6284829;20;2826347;-52
2023/04/26 03:11:52;;;;;;;;;24.00;21.00;;;;;8.05;91.54;98907.16;6280181;20;2500313;-51
2023/04/26 03:14:21;;;;;;;;;20.33;18.33;;;;;8.04;91.84;98916.13;6277683;20;3561710;-51
2023/04/26 03:16:49;;;;;;;;;20.00;18.00;;;;;7.88;92.34;98917.09;6280402;20;2829475;-51
2023/04/26 03:19:17;;;;;;;;;24.00;23.00;;;;;7.89;92.61;98923.31;6282014;20;2500362;-53
2023/04/26 03:21:45;;;;;;;;;21.00;20.00;;;;;7.84;92.78;98925.41;6276491;20;2500296;-55
2023/04/26 03:24:13;;;;;;;;;20.00;20.00;;;;;7.82;92.80;98928.19;6278442;20;2500338;-52
2023/04/26 03:26:41;;;;;;;;;19.50;18.50;;;;;7.63;93.16;98928.44;6279430;20;2500372;-54
2023/04/26 03:29:11;;;;;;;;;22.33;20.00;;;;;7.73;93.05;98943.91;6283151;20;3575228;-50
2023/04/26 03:31:39;;;;;;;;;19.50;17.00;;;;;7.82;91.62;98944.22;6284378;20;2821497;-52
2023/04/26 03:34:07;;;;;;;;;17.50;17.50;;;;;7.67;91.99;98946.03;6279648;20;2500310;-58
2023/04/26 03:36:35;;;;;;;;;23.00;19.00;;;;;7.80;91.77;98950.63;6281500;20;2842011;-59
2023/04/26 03:39:04;;;;;;;;;17.00;15.50;;;;;7.82;91.49;98954.03;6280673;20;2500326;-58
2023/04/26 03:41:35;;;;;;;;;19.00;17.50;;;;;7.73;91.26;98954.59;6284472;20;2825348;-58
2023/04/26 03:44:03;;;;;;;;;19.00;19.00;;;;;7.78;91.19;98958.72;6279118;20;2498299;-59
2023/04/26 03:46:32;;;;;;;;;18.00;18.00;;;;;7.78;91.15;98960.53;6280782;20;2835746;-58
2023/04/26 03:49:01;;;;;;;;;20.67;19.33;;;;;7.76;91.53;98962.44;6280985;20;3571162;-59
2023/04/26 03:51:30;;;;;;;;;18.50;14.00;;;;;7.81;90.84;98968.34;6285053;20;2818106;-60
2023/04/26 03:53:59;;;;;;;;;18.00;16.00;;;;;7.92;89.84;98965.88;6282046;20;3546187;-56
2023/04/26 03:56:28;;;;;;;;;17.33;15.33;;;;;7.83;89.93;98975.31;6270661;20;3541962;-58
2023/04/26 03:58:56;;;;;;;;;15.33;15.00;;;;;7.69;90.31;98986.88;6276778;20;3522194;-57
2023/04/26 04:01:25;;;;;;;;;18.00;17.00;;;;;7.70;90.58;98979.69;6309755;20;3552436;-59
2023/04/26 04:03:53;;;;;;;;;16.50;16.50;;;;;7.77;90.24;98988.22;6276198;20;2500346;-58
2023/04/26 04:06:22;;;;;;;;;18.00;15.67;;;;;7.87;89.86;98984.88;6276868;20;3547147;-57
2023/04/26 04:08:50;;;;;;;;;24.00;19.00;;;;;7.99;89.35;98990.41;6275393;20;2483647;-57
2023/04/26 04:11:19;;;;;;;;;17.50;17.00;;;;;8.08;88.71;98982.69;6280433;20;2821121;-58
2023/04/26 04:13:47;;;;;;;;;17.00;17.00;;;;;8.31;87.45;98993.72;6281031;20;2500376;-58
2023/04/26 04:16:14;;;;;;;;;19.50;18.00;;;;;8.31;87.23;98993.72;6279516;20;2835753;-58
2023/04/26 04:18:43;;;;;;;;;18.00;16.00;;;;;8.33;86.71;98997.19;6282347;20;3550409;-60
2023/04/26 04:21:12;;;;;;;;;14.00;12.00;;;;;8.45;86.01;99009.81;6276052;20;3517987;-59
2023/04/26 04:23:42;;;;;;;;;16.67;15.67;;;;;8.52;85.27;99010.25;6311956;20;3533591;-57
2023/04/26 04:26:11;;;;;;;;;16.00;13.67;;;;;8.51;85.04;99006.72;6314729;20;3536718;-57
2023/04/26 04:28:44;;;;;;;;;12.00;12.00;;;;;8.73;84.34;99016.06;6358919;20;1968045;-56
2023/04/26 04:31:13;;;;;;;;;17.67;15.00;;;;;13.23;68.33;99021.34;6315325;20;3533599;-50
2023/04/26 04:33:41;;;;;;;;;11.00;11.00;;;;;15.47;55.65;99042.25;6289055;20;2786761;-60
2023/04/26 04:36:10;;;;;;;;;10.67;10.67;;;;;16.72;51.03;99044.94;6284163;20;3513995;-60
2023/04/26 04:38:37;;;;;;;;;12.00;11.00;;;;;14.60;55.03;99048.31;6317515;20;2788849;-57
2023/04/26 04:41:07;;;;;;;;;11.00;11.00;;;;;15.79;52.39;99041.16;6282441;20;3516015;-55
2023/04/26 04:43:37;;;;;;;;;12.60;9.80;;;;;13.71;58.51;99034.41;6340789;20;2792477;-57
2023/04/26 04:46:05;;;;;;;;;14.00;11.00;;;;;14.97;55.26;99041.47;6283458;20;2796124;-55
2023/04/26 04:48:32;;;;;;;;;9.00;9.00;;;;;13.68;57.38;99040.06;6285869;20;2748359;-53
2023/04/26 04:51:01;;;;;;;;;9.00;9.00;;;;;12.63;61.17;99033.47;6289355;20;2763259;-57
2023/04/26 04:53:30;;;;;;;;;8.40;7.80;;;;;13.65;57.79;99048.41;6306996;20;2755620;-58
2023/04/26 04:56:00;;;;;;;;;13.00;10.20;;;;;13.32;60.18;99044.88;6338490;20;2786829;-58
2023/04/26 04:58:28;;;;;;;;;9.00;8.00;;;;;13.55;57.93;99053.72;6288577;20;2757569;-59
2023/04/26 05:00:59;;;;;;;;;10.00;10.00;;;;;12.03;61.50;99049.84;6280734;20;2783623;-60
2023/04/26 05:03:27;;;;;;;;;9.50;9.50;;;;;12.33;63.26;99042.16;6285630;20;2773229;-59
2023/04/26 05:05:56;;;;;;;;;10.50;9.00;;;;;12.72;59.85;99055.13;6282929;20;2767978;-59
2023/04/26 05:08:24;;;;;;;;;8.00;8.00;;;;;12.75;59.21;99054.03;6288986;20;2744071;-59
2023/04/26 05:10:52;;;;;;;;;11.00;9.00;;;;;12.84;59.21;99055.97;6284929;20;2771117;-60
2023/04/26 05:13:20;;;;;;;;;11.00;9.50;;;;;13.47;56.05;99061.59;6288823;20;2779782;-60
2023/04/26 05:15:49;;;;;;;;;9.00;9.00;;;;;13.66;54.99;99074.38;6311152;20;2759644;-58
2023/04/26 05:18:17;;;;;;;;;8.00;8.00;;;;;14.05;54.03;99069.28;6323885;20;2638828;-57
2023/04/26 05:20:45;;;;;;;;;8.00;8.00;;;;;13.37;53.36;99072.28;6284870;20;2752429;-57
2023/04/26 05:23:12;;;;;;;;;8.00;8.00;;;;;12.80;57.07;99070.69;6285461;20;2737797;-58
2023/04/26 05:25:40;;;;;;;;;9.50;9.50;;;;;14.05;50.54;99074.69;6283016;20;2766967;-57
2023/04/26 05:28:11;;;;;;;;;7.50;7.50;;;;;12.84;54.33;99077.50;6287494;20;2750311;-59
2023/04/26 05:30:39;;;;;;;;;7.00;7.00;;;;;13.79;51.91;99074.22;6287831;20;2735762;-59
2023/04/26 05:33:07;;;;;;;;;10.00;8.00;;;;;13.61;52.46;99082.00;6282874;20;2760785;-58
2023/04/26 05:35:35;;;;;;;;;5.50;5.00;;;;;13.48;52.16;99075.94;6285658;20;2744065;-57
2023/04/26 05:38:03;;;;;;;;;7.00;6.00;;;;;13.81;52.04;99083.03;6280972;20;2742045;-57
2023/04/26 05:40:31;;;;;;;;;10.00;9.50;;;;;16.45;43.70;99092.63;6283388;20;2769048;-57
2023/04/26 05:42:59;;;;;;;;;7.50;7.00;;;;;13.56;49.57;99095.03;6287713;20;2736765;-54
2023/04/26 05:45:26;;;;;;;;;9.00;8.00;;;;;12.84;52.85;99090.97;6285699;20;2752420;-58
2023/04/26 05:47:55;;;;;;;;;6.00;6.00;;;;;12.87;53.00;99088.03;6288667;20;2740954;-59
2023/04/26 05:50:25;;;;;;;;;9.60;9.60;;;;;13.60;51.06;99099.19;6308945;20;2786807;-59
2023/04/26 05:52:54;;;;;;;;;7.00;7.00;;;;;14.77;47.14;99102.69;6311846;20;2730630;-59
2023/04/26 05:55:23;;;;;;;;;12.00;9.00;;;;;15.55;46.15;99103.78;6309872;20;2771214;-59
2023/04/26 05:57:51;;;;;;;;;11.00;10.00;;;;;16.14;45.77;99115.50;6319820;20;2798252;-58
2023/04/26 06:00:22;;;;;;;;;8.20;8.00;;;;;13.24;49.89;99106.59;6308522;20;2748162;-58
2023/04/26 06:02:51;;;;;;;;;6.80;6.80;;;;;12.74;51.69;99103.47;6342766;20;2741961;-59
2023/04/26 06:05:20;;;;;;;;;12.00;8.00;;;;;11.63;54.35;99098.56;6316389;20;2764816;-58
2023/04/26 06:07:48;;;;;;;;;6.50;6.50;;;;;12.38;52.02;99110.81;6290773;20;2736220;-58
2023/04/26 06:10:16;;;;;;;;;7.00;6.00;;;;;12.49;51.57;99107.28;6288322;20;2738867;-59
2023/04/26 06:12:45;;;;;;;;;10.00;10.00;;;;;12.99;51.13;99112.31;6284439;20;2781648;-58
2023/04/26 06:15:13;;;;;;;;;8.00;8.00;;;;;12.43;53.43;99116.69;6290870;20;2751795;-59
2023/04/26 06:17:42;;;;;;;;;8.00;8.00;;;;;12.19;52.51;99111.41;6314302;20;2746122;-59
2023/04/26 06:20:11;;;;;;;;;9.00;6.00;;;;;12.32;52.00;99113.97;6318943;20;2745079;-59
2023/04/26 06:22:38;;;;;;;;;5.50;5.50;;;;;12.02;53.43;99123.44;6289900;20;2741975;-59
2023/04/26 06:25:07;;;;;;;;;6.00;6.00;;;;;12.10;52.18;99125.53;6285858;20;2742064;-55
2023/04/26 06:27:37;;;;;;;;;7.00;6.00;;;;;12.62;51.64;99123.31;6289869;20;2736740;-59
2023/04/26 06:30:09;;;;;;;;;5.20;5.20;;;;;12.33;51.23;99118.38;6327564;20;2479462;-59
2023/04/26 06:32:41;;;;;;;;;9.00;9.00;;;;;12.54;50.91;99120.38;6317399;20;2752464;-59
2023/04/26 06:35:09;;;;;;;;;7.00;7.00;;;;;12.87;47.24;99117.69;6287036;20;2748217;-59
2023/04/26 06:37:39;;;;;;;;;10.80;8.20;;;;;12.51;49.47;99124.16;6309521;20;2763796;-59
2023/04/26 06:40:08;;;;;;;;;5.00;4.00;;;;;13.54;47.18;99126.69;6287619;20;2752434;-59
2023/04/26 06:42:36;;;;;;;;;8.00;7.00;;;;;15.73;41.03;99133.75;6286585;20;2736763;-58
2023/04/26 06:45:05;;;;;;;;;4.00;4.00;;;;;19.81;34.09;99146.41;6287117;20;2744027;-56
2023/04/26 06:47:33;;;;;;;;;6.50;6.50;;;;;23.99;27.70;99158.50;6287152;20;2745220;-58
2023/04/26 06:50:04;;;;;;;;;7.20;5.60;;;;;22.55;28.60;99153.25;6311919;20;2739865;-58
2023/04/26 06:52:34;;;;;;;;;5.80;5.80;;;;;23.00;28.21;99151.47;6343814;20;2735733;-59
2023/04/26 06:55:03;;;;;;;;;5.00;3.00;;;;;22.26;28.08;99150.44;6317525;20;2749372;-58
2023/04/26 06:57:33;;;;;;;;;6.00;4.40;;;;;22.79;27.53;99157.66;6309894;20;2748265;-59
2023/04/26 07:00:04;;;;;;;;;5.00;5.00;;;;;21.37;28.43;99149.88;6340807;20;2739870;-59
2023/04/26 07:02:32;;;;;;;;;3.50;3.50;;;;;-146.39;100.00;62182.44;6318303;20;2751414;-59
2023/04/26 07:05:00;;;;;;;;;5.00;5.00;;;;;21.37;28.43;99149.88;6288735;20;2748397;-60
2023/04/26 07:07:28;;;;;;;;;3.00;3.00;;;;;21.37;28.43;99149.88;6289724;20;2739903;-57
2023/04/26 07:09:56;;;;;;;;;6.50;5.00;;;;;21.22;28.72;99158.81;6289524;20;2737899;-59
2023/04/26 07:12:26;;;;;;;;;6.00;6.00;;;;;21.62;28.42;99165.16;6313039;20;2746139;-59
2023/04/26 07:14:54;;;;;;;;;6.00;4.50;;;;;20.37;29.51;99170.16;6316318;20;2747181;-60
2023/04/26 07:17:23;;;;;;;;;4.40;4.40;;;;;21.97;28.18;99173.00;6313676;20;2741945;-60
2023/04/26 07:19:51;;;;;;;;;5.00;5.00;;;;;20.09;29.13;99166.03;6319168;20;2741955;-59
2023/04/26 07:22:22;;;;;;;;;3.50;3.50;;;;;17.20;35.74;99159.66;6292343;20;2735712;-59
2023/04/26 07:24:50;;;;;;;;;7.00;4.00;;;;;17.84;35.51;99168.72;6286636;20;2748188;-59
2023/04/26 07:27:17;;;;;;;;;9.00;5.00;;;;;15.79;37.99;99168.38;6291070;20;2734708;-60
2023/04/26 07:29:45;;;;;;;;;6.50;5.50;;;;;14.35;40.18;99167.53;6289823;20;2736827;-59
2023/04/26 07:32:15;;;;;;;;;7.20;7.20;;;;;14.83;41.41;99162.50;6312089;20;2740307;-59
2023/04/26 07:34:43;;;;;;;;;7.00;6.00;;;;;14.80;41.22;99160.06;6318666;20;2729545;-61
2023/04/26 07:37:11;;;;;;;;;4.00;4.00;;;;;14.44;41.01;99172.19;6291324;20;2737740;-60
2023/04/26 07:39:38;;;;;;;;;5.00;5.00;;;;;13.94;42.56;99163.84;6286278;20;2743034;-61
2023/04/26 07:42:06;;;;;;;;;7.00;6.00;;;;;14.48;40.90;99168.22;6289181;20;2743137;-61
2023/04/26 07:44:36;;;;;;;;;10.00;7.00;;;;;14.21;41.81;99176.84;6310840;20;2767106;-60
2023/04/26 07:47:04;;;;;;;;;5.00;5.00;;;;;14.69;42.18;99179.91;6287352;20;2740938;-61
2023/04/26 07:49:32;;;;;;;;;7.50;7.50;;;;;14.75;41.06;99180.38;6286569;20;2748589;-60
2023/04/26 07:52:01;;;;;;;;;6.00;6.00;;;;;14.48;41.43;99182.59;6286565;20;2746126;-61
2023/04/26 07:54:30;;;;;;;;;12.20;10.20;;;;;14.67;42.69;99181.03;6307896;20;2792002;-62
2023/04/26 07:56:58;;;;;;;;;12.00;7.00;;;;;-146.39;100.00;62182.44;6287881;20;2758748;-61
2023/04/26 07:59:26;;;;;;;;;9.50;7.00;;;;;-146.39;100.00;62182.44;6286027;20;2750461;-60
2023/04/26 08:01:54;;;;;;;;;7.50;6.50;;;;;-146.39;100.00;62182.44;6286044;20;2733686;-61
2023/04/26 08:04:35;;;;;;;;;6.80;6.00;;;;;-146.39;100.00;62182.44;6308379;20;2748239;-60
2023/04/26 08:07:03;;;;;;;;;4.00;4.00;;;;;14.67;42.69;99181.03;6317250;20;2751378;-61
2023/04/26 08:09:31;;;;;;;;;10.00;7.00;;;;;13.86;42.00;99204.09;6289879;20;2756648;-60
2023/04/26 08:11:59;;;;;;;;;5.00;5.00;;;;;14.21;40.44;99199.28;6288622;20;2745223;-61
2023/04/26 08:14:28;;;;;;;;;7.00;6.00;;;;;14.32;40.15;99202.91;6285204;20;2731631;-62
2023/04/26 08:16:56;;;;;;;;;9.00;6.00;;;;;14.75;40.01;99212.81;6282648;20;2737898;-61
2023/04/26 08:19:25;;;;;;;;;7.00;4.00;;;;;13.54;40.66;99202.22;6284628;20;2747134;-60
2023/04/26 08:21:53;;;;;;;;;6.00;5.00;;;;;14.05;41.03;99209.66;6286398;20;2736847;-61
2023/04/26 08:24:21;;;;;;;;;6.00;5.50;;;;;13.88;41.25;99203.00;6285137;20;2748211;-60
2023/04/26 08:26:49;;;;;;;;;5.00;5.00;;;;;13.69;40.98;99219.84;6288839;20;2738851;-60
2023/04/26 08:29:17;;;;;;;;;8.00;5.00;;;;;14.30;41.19;99221.09;6283983;20;2740931;-61
2023/04/26 08:31:47;;;;;;;;;8.00;6.00;;;;;14.27;39.62;99225.78;6309114;20;2746172;-60
2023/04/26 08:34:16;;;;;;;;;7.40;5.80;;;;;13.92;41.00;99220.63;6339501;20;2735733;-60
2023/04/26 08:36:47;;;;;;;;;8.00;6.00;;;;;14.90;40.09;99223.13;6315119;20;2747277;-61
2023/04/26 08:39:16;;;;;;;;;8.00;7.00;;;;;14.00;39.74;99217.28;6288508;20;2732590;-60
2023/04/26 08:41:54;;;;;;;;;6.86;5.86;;;;;14.65;40.86;99219.00;6328693;20;3437803;-61
2023/04/26 08:44:24;;;;;;;;;7.00;7.00;;;;;14.42;40.00;99220.91;6317752;20;2742070;-61
2023/04/26 08:47:25;;;;;;;;;5.50;3.00;;;;;14.93;40.42;99233.69;6283070;20;2745084;-61
2023/04/26 08:50:02;;;;;;;;;6.50;6.00;;;;;14.30;40.65;99226.50;6285928;20;2732625;-61
2023/04/26 08:52:31;;;;;;;;;12.00;8.50;;;;;14.62;40.43;99218.41;6285097;20;2774297;-61
2023/04/26 08:55:00;;;;;;;;;8.50;7.00;;;;;14.17;40.31;99224.84;6285058;20;2746129;-61
2023/04/26 08:57:32;;;;;;;;;9.00;7.00;;;;;14.71;39.00;99223.00;6285695;20;2737838;-60
2023/04/26 09:00:12;;;;;;;;;4.00;4.00;;;;;14.59;40.26;99224.94;6281725;20;2728405;-61
2023/04/26 09:02:48;;;;;;;;;5.50;4.00;;;;;14.38;38.89;99229.44;6285065;20;2747122;-61
2023/04/26 09:05:22;;;;;;;;;10.00;6.67;;;;;14.20;39.78;99235.38;6279269;20;2767051;-61
2023/04/26 09:08:00;;;;;;;;;7.57;6.71;;;;;15.14;39.25;99235.50;6356799;20;3458601;-60
2023/04/26 09:10:31;;;;;;;;;9.00;8.67;;;;;14.77;38.93;99229.72;6311243;20;2768064;-62
2023/04/26 09:12:59;;;;;;;;;7.00;6.00;;;;;14.60;40.23;99228.47;6320956;20;2741344;-61
2023/04/26 09:15:27;;;;;;;;;4.00;2.50;;;;;15.06;39.09;99224.47;6288854;20;2756570;-61
2023/04/26 09:17:54;;;;;;;;;6.50;6.00;;;;;15.05;40.00;99230.88;6292614;20;2741468;-61
2023/04/26 09:20:24;;;;;;;;;9.00;8.00;;;;;14.66;40.43;99228.78;6287886;20;2740282;-61
2023/04/26 09:23:14;;;;;;;;;6.00;5.00;;;;;14.33;40.61;99228.97;6288233;20;2746234;-62
2023/04/26 09:25:42;;;;;;;;;8.00;8.00;;;;;14.87;39.43;99227.94;6291449;20;2744075;-61
2023/04/26 09:28:28;;;;;;;;;6.00;5.00;;;;;14.42;39.95;99225.47;6289781;20;2739846;-62
2023/04/26 09:30:55;;;;;;;;;4.50;4.50;;;;;15.21;38.37;99230.41;6289693;20;2739964;-62
2023/04/26 09:33:23;;;;;;;;;7.00;6.00;;;;;14.22;39.89;99230.72;6291121;20;2739862;-61
2023/04/26 09:35:55;;;;;;;;;7.43;5.86;;;;;14.67;39.58;99230.53;6327496;20;3458718;-59
2023/04/26 09:38:23;;;;;;;;;7.00;6.00;;;;;14.30;38.08;99221.09;6320606;20;2739893;-60
2023/04/26 09:40:53;;;;;;;;;7.00;6.00;;;;;14.89;37.08;99223.25;6312327;20;2748250;-60
2023/04/26 09:43:22;;;;;;;;;7.00;6.00;;;;;15.64;38.08;99221.16;6321794;20;2746132;-61
2023/04/26 09:45:57;;;;;;;;;8.00;7.00;;;;;14.45;40.12;99225.19;6287944;20;2735728;-61
2023/04/26 09:48:33;;;;;;;;;4.00;4.00;;;;;14.36;40.03;99217.91;6289218;20;2743032;-60
2023/04/26 09:51:13;;;;;;;;;6.00;4.00;;;;;13.41;41.64;99221.22;6290780;20;2750507;-61
2023/04/26 09:53:46;;;;;;;;;5.00;5.00;;;;;13.78;40.81;99219.06;6289536;20;2742996;-59
2023/04/26 09:56:20;;;;;;;;;5.60;4.60;;;;;13.82;41.87;99219.66;6309712;20;2743989;-60
2023/04/26 09:59:04;;;;;;;;;7.00;6.00;;;;;15.16;39.40;99222.69;6318141;20;2734736;-60
2023/04/26 10:01:32;;;;;;;;;6.50;5.00;;;;;14.79;39.58;99230.44;6290693;20;2741081;-64
2023/04/26 10:04:03;;;;;;;;;6.50;5.50;;;;;14.57;39.22;99226.03;6286457;20;2736826;-60
2023/04/26 10:06:32;;;;;;;;;4.00;4.00;;;;;14.77;38.86;99221.63;6286302;20;2748852;-57
2023/04/26 10:09:03;;;;;;;;;6.00;4.00;;;;;13.83;40.14;99224.94;6289432;20;2745072;-60
2023/04/26 10:11:31;;;;;;;;;4.50;3.50;;;;;14.17;39.40;99230.25;6287622;20;2754464;-61
2023/04/26 10:13:59;;;;;;;;;6.00;5.00;;;;;14.62;38.37;99219.25;6286908;20;2734032;-62
2023/04/26 10:16:30;;;;;;;;;7.43;5.14;;;;;15.22;37.37;99229.41;6327265;20;3446095;-61
2023/04/26 10:19:03;;;;;;;;;5.57;5.14;;;;;14.75;37.35;99226.31;6363428;20;3457582;-61
2023/04/26 10:21:37;;;;;;;;;6.00;5.00;;;;;14.97;36.07;99228.84;6319373;20;2737780;-61
2023/04/26 10:24:05;;;;;;;;;5.50;5.50;;;;;14.26;38.08;99223.22;6288798;20;2727430;-61
2023/04/26 10:27:06;;;;;;;;;6.00;6.00;;;;;14.77;38.64;99232.41;6286118;20;2738835;-61
2023/04/26 10:29:55;;;;;;;;;8.50;7.00;;;;;14.95;36.96;99230.81;6281790;20;2741953;-61
2023/04/26 10:32:23;;;;;;;;;7.50;6.00;;;;;15.54;36.21;99222.00;6291568;20;2746137;-62
2023/04/26 10:35:12;;;;;;;;;9.00;6.00;;;;;14.33;38.48;99235.22;6286587;20;2741980;-61
2023/04/26 10:38:00;;;;;;;;;5.50;4.00;;;;;13.58;38.65;99230.63;6289799;20;2741984;-61
2023/04/26 10:40:38;;;;;;;;;5.00;5.00;;;;;14.70;37.95;99237.50;6289184;20;2741966;-61
2023/04/26 10:43:14;;;;;;;;;4.50;4.50;;;;;15.21;35.77;99225.84;6289966;20;2748354;-60
2023/04/26 10:45:44;;;;;;;;;7.00;7.00;;;;;16.22;36.77;99226.72;6287100;20;2744109;-61
2023/04/26 10:48:30;;;;;;;;;5.00;5.00;;;;;14.95;37.34;99236.22;6290901;20;2743107;-60
2023/04/26 10:51:01;;;;;;;;;6.00;6.00;;;;;15.46;36.48;99238.06;6289248;20;2738905;-60
2023/04/26 10:53:52;;;;;;;;;6.50;5.00;;;;;14.73;35.64;99234.53;6289691;20;2739904;-61
2023/04/26 10:56:23;;;;;;;;;5.40;4.60;;;;;15.75;35.93;99232.78;6306826;20;2741981;-61
2023/04/26 10:59:11;;;;;;;;;7.00;6.00;;;;;15.55;35.80;99239.94;6318955;20;2740898;-60
2023/04/26 11:02:01;;;;;;;;;6.80;6.80;;;;;15.01;36.18;99235.72;6313656;20;2738852;-60
2023/04/26 11:04:51;;;;;;;;;4.00;1.00;;;;;15.27;35.83;99240.66;6320171;20;2739915;-60
2023/04/26 11:07:37;;;;;;;;;7.00;7.00;;;;;15.68;36.23;99247.81;6288518;20;2734722;-60
2023/04/26 11:10:09;;;;;;;;;8.00;8.00;;;;;15.68;35.00;99238.84;6290458;20;2746124;-61
2023/04/26 11:12:41;;;;;;;;;6.00;5.00;;;;;16.35;35.19;99231.84;6291116;20;2740349;-62
2023/04/26 11:15:12;;;;;;;;;5.60;4.60;;;;;16.37;35.26;99236.13;6310146;20;2748208;-60
2023/04/26 11:17:40;;;;;;;;;6.50;6.50;;;;;15.00;35.45;99239.41;6321003;20;2743179;-61
2023/04/26 11:20:16;;;;;;;;;5.00;3.00;;;;;15.94;35.17;99234.66;6283227;20;2746196;-61
2023/04/26 11:22:44;;;;;;;;;5.50;5.50;;;;;15.68;34.65;99228.00;6288860;20;2740899;-61
2023/04/26 11:25:13;;;;;;;;;6.00;6.00;;;;;15.46;36.33;99231.81;6287392;20;2746556;-60